createdAt,value
2019-05-06T00:02:13.819Z,97209.95
2019-05-06T00:04:40.256Z,97209.24
2019-05-06T00:07:07.705Z,97215.22
2019-05-06T00:09:35.137Z,97210.23
2019-05-06T00:12:03.988Z,97214.39
2019-05-06T00:14:30.043Z,97218.55
2019-05-06T00:16:58.802Z,97221.52
2019-05-06T00:19:24.968Z,97221.94
2019-05-06T00:21:54.090Z,97216.80
2019-05-06T00:24:19.930Z,97215.03
2019-05-06T00:26:47.377Z,97218.27
2019-05-06T00:29:14.989Z,97221.75
2019-05-06T00:31:44.017Z,97220.95
2019-05-06T00:34:09.956Z,97227.27
2019-05-06T00:36:37.412Z,97235.19
2019-05-06T00:39:04.889Z,97244.65
2019-05-06T00:41:35.854Z,97237.69
2019-05-06T00:43:59.822Z,97241.85
2019-05-06T00:46:27.284Z,97238.20
2019-05-06T00:48:54.735Z,97239.66
2019-05-06T00:51:24.018Z,97238.36
2019-05-06T00:53:50.201Z,97243.66
2019-05-06T00:56:17.644Z,97243.41
2019-05-06T00:58:45.096Z,97242.27
2019-05-06T01:01:25.518Z,97239.65
2019-05-06T01:03:40.052Z,97246.48
2019-05-06T01:06:07.641Z,97246.16
2019-05-06T01:08:35.149Z,97242.00
2019-05-06T01:11:04.075Z,97234.67
2019-05-06T01:13:30.106Z,97233.04
2019-05-06T01:15:57.585Z,97231.18
2019-05-06T01:18:25.038Z,97235.17
2019-05-06T01:20:54.105Z,97233.88
2019-05-06T01:23:20.130Z,97231.63
2019-05-06T01:25:47.660Z,97236.59
2019-05-06T01:28:15.260Z,97228.62
2019-05-06T01:30:44.331Z,97229.45
2019-05-06T01:33:10.277Z,97235.64
2019-05-06T01:35:37.870Z,97233.98
2019-05-06T01:38:10.985Z,97240.28
2019-05-06T01:40:38.447Z,97241.05
2019-05-06T01:43:07.706Z,97242.92
2019-05-06T01:45:35.187Z,97243.19
2019-05-06T01:48:04.019Z,97248.41
2019-05-06T01:50:30.113Z,97252.97
2019-05-06T01:52:57.618Z,97246.23
2019-05-06T01:55:25.059Z,97250.69
2019-05-06T01:57:54.417Z,97249.33
2019-05-06T02:00:20.039Z,97253.44
2019-05-06T02:02:47.483Z,97253.80
2019-05-06T02:05:14.958Z,97254.05
2019-05-06T02:07:44.099Z,97252.48
2019-05-06T02:10:09.877Z,97258.34
2019-05-06T02:12:37.390Z,97250.22
2019-05-06T02:15:04.876Z,97256.36
2019-05-06T02:17:34.371Z,97251.85
2019-05-06T02:19:59.911Z,97260.78
2019-05-06T02:22:37.320Z,97258.80
2019-05-06T02:25:05.308Z,97262.61
2019-05-06T02:27:34.127Z,97264.03
2019-05-06T02:30:17.108Z,97259.88
2019-05-06T02:32:49.169Z,97253.14
2019-05-06T02:35:26.579Z,97260.73
2019-05-06T02:37:54.987Z,97251.64
2019-05-06T02:40:25.005Z,97264.45
2019-05-06T02:42:49.908Z,97261.27
2019-05-06T02:45:17.372Z,97267.49
2019-05-06T02:47:45.010Z,97261.62
2019-05-06T02:50:13.477Z,97266.05
2019-05-06T02:52:43.740Z,97267.87
2019-05-06T02:55:08.333Z,97271.91
2019-05-06T03:00:18.821Z,97280.19
2019-05-06T03:02:48.276Z,97279.52
2019-05-06T03:05:13.877Z,97287.13
2019-05-06T03:07:43.477Z,97284.02
2019-05-06T03:10:13.005Z,97292.90
2019-05-06T03:12:42.886Z,97289.98
2019-05-06T03:15:07.602Z,97294.36
2019-05-06T03:17:35.052Z,97291.33
2019-05-06T03:20:04.350Z,97292.09
2019-05-06T03:22:43.238Z,97291.95
2019-05-06T03:25:13.046Z,97298.50
2019-05-06T03:27:37.403Z,97287.44
2019-05-06T03:30:06.449Z,97280.30
2019-05-06T03:32:38.193Z,97283.00
2019-05-06T03:35:25.131Z,97287.54
2019-05-06T03:37:29.005Z,97286.44
2019-05-06T03:39:56.463Z,97283.60
2019-05-06T03:42:23.934Z,97283.84
2019-05-06T03:44:53.240Z,97292.18
2019-05-06T03:47:24.447Z,97288.05
2019-05-06T03:49:54.608Z,97290.52
2019-05-06T03:52:19.385Z,97295.44
2019-05-06T03:54:46.833Z,97296.09
2019-05-06T03:57:14.280Z,97295.51
2019-05-06T03:59:43.540Z,97297.13
2019-05-06T04:02:09.296Z,97293.64
2019-05-06T04:04:36.748Z,97292.48
2019-05-06T04:07:04.219Z,97295.92
2019-05-06T04:09:33.524Z,97298.72
2019-05-06T04:11:59.616Z,97300.24
2019-05-06T04:14:27.155Z,97303.91
2019-05-06T04:16:55.061Z,97302.66
2019-05-06T04:19:23.687Z,97304.23
2019-05-06T04:21:53.013Z,97302.94
2019-05-06T04:27:19.421Z,97307.29
2019-05-06T04:29:46.884Z,97304.27
2019-05-06T04:32:14.430Z,97304.28
2019-05-06T04:34:43.051Z,97317.61
2019-05-06T04:37:09.381Z,97312.05
2019-05-06T04:39:36.850Z,97322.54
2019-05-06T04:42:04.297Z,97320.34
2019-05-06T04:44:33.076Z,97331.68
2019-05-06T04:46:59.241Z,97323.89
2019-05-06T04:49:26.717Z,97325.78
2019-05-06T04:51:54.423Z,97327.73
2019-05-06T04:54:26.177Z,97330.52
2019-05-06T04:56:49.203Z,97329.64
2019-05-06T04:59:16.803Z,97335.53
2019-05-06T05:01:45.639Z,97337.30
2019-05-06T05:04:24.596Z,97339.53
2019-05-06T05:06:39.272Z,97332.10
2019-05-06T05:09:06.737Z,97339.44
2019-05-06T05:11:34.240Z,97343.75
2019-05-06T05:16:57.230Z,97349.67
2019-05-06T05:19:24.736Z,97353.70
2019-05-06T05:21:52.285Z,97352.40
2019-05-06T05:24:19.747Z,97348.61
2019-05-06T05:26:47.265Z,97342.98
2019-05-06T05:29:14.845Z,97342.05
2019-05-06T05:31:43.681Z,97347.58
2019-05-06T05:34:09.866Z,97350.06
2019-05-06T05:36:37.340Z,97358.81
2019-05-06T05:39:04.842Z,97361.91
2019-05-06T05:41:33.155Z,97357.64
2019-05-06T05:43:59.848Z,97361.38
2019-05-06T05:46:27.343Z,97357.02
2019-05-06T05:49:05.729Z,97358.47
2019-05-06T05:51:33.203Z,97361.03
2019-05-06T05:54:02.182Z,97364.74
2019-05-06T05:56:28.292Z,97364.06
2019-05-06T05:58:55.803Z,97364.12
2019-05-06T06:01:23.543Z,97364.89
2019-05-06T06:03:52.823Z,97363.07
2019-05-06T06:06:18.481Z,97360.51
2019-05-06T06:08:45.954Z,97361.93
2019-05-06T06:11:23.400Z,97352.68
2019-05-06T06:13:52.270Z,97356.18
2019-05-06T06:19:14.636Z,97359.64
2019-05-06T06:21:42.930Z,97363.11
2019-05-06T06:24:13.180Z,97356.23
2019-05-06T06:26:40.268Z,97356.30
2019-05-06T06:29:07.835Z,97361.87
2019-05-06T06:31:38.809Z,97359.91
2019-05-06T06:34:06.463Z,97353.94
2019-05-06T06:36:44.655Z,97355.75
2019-05-06T06:39:14.645Z,97368.19
2019-05-06T06:41:42.460Z,97362.10
2019-05-06T06:47:02.161Z,97364.02
2019-05-06T06:49:29.421Z,97360.50
2019-05-06T06:51:56.924Z,97354.73
2019-05-06T06:54:24.382Z,97356.17
2019-05-06T06:57:05.303Z,97350.37
2019-05-06T06:59:19.828Z,97356.02
2019-05-06T07:01:53.138Z,97357.66
2019-05-06T07:04:35.355Z,97360.94
2019-05-06T07:07:03.185Z,97355.78
2019-05-06T07:09:32.287Z,97354.75
2019-05-06T07:11:57.955Z,97347.73
2019-05-06T07:14:25.399Z,97357.78
2019-05-06T07:16:53.423Z,97355.41
2019-05-06T07:19:20.574Z,97352.38
2019-05-06T07:21:48.428Z,97355.77
2019-05-06T07:24:15.931Z,97354.95
2019-05-06T07:26:46.292Z,97342.82
2019-05-06T07:29:23.111Z,97342.66
2019-05-06T07:31:42.692Z,97353.42
2019-05-06T07:34:08.913Z,97344.59
2019-05-06T07:36:36.672Z,97339.66
2019-05-06T07:39:04.456Z,97340.45
2019-05-06T07:41:53.475Z,97340.41
2019-05-06T07:47:15.769Z,97335.38
2019-05-06T07:49:43.172Z,97345.95
2019-05-06T07:52:12.322Z,97343.71
2019-05-06T07:54:38.721Z,97347.65
2019-05-06T07:57:06.206Z,97339.95
2019-05-06T07:59:33.685Z,97342.92
2019-05-06T08:02:02.304Z,97343.85
2019-05-06T08:04:28.737Z,97341.45
2019-05-06T08:06:56.243Z,97348.39
2019-05-06T08:09:23.741Z,97346.06
2019-05-06T08:11:53.014Z,97333.89
2019-05-06T08:14:18.781Z,97340.03
2019-05-06T08:16:49.188Z,97336.52
2019-05-06T08:19:16.651Z,97340.80
2019-05-06T08:21:44.681Z,97343.88
2019-05-06T08:24:12.150Z,97342.22
2019-05-06T08:26:39.643Z,97343.27
2019-05-06T08:29:07.166Z,97345.48
2019-05-06T08:31:34.627Z,97347.05
2019-05-06T08:34:02.708Z,97353.36
2019-05-06T08:36:35.241Z,97349.05
2019-05-06T08:39:03.019Z,97345.34
2019-05-06T08:41:30.226Z,97352.94
2019-05-06T08:43:57.834Z,97347.75
2019-05-06T08:46:26.251Z,97359.02
2019-05-06T08:48:53.780Z,97353.78
2019-05-06T08:51:26.983Z,97359.42
2019-05-06T08:53:55.832Z,97336.90
2019-05-06T08:56:23.327Z,97351.41
2019-05-06T08:58:52.779Z,97354.11
2019-05-06T09:01:22.398Z,97347.94
2019-05-06T09:03:48.341Z,97348.42
2019-05-06T09:06:26.942Z,97353.41
2019-05-06T09:08:45.185Z,97349.19
2019-05-06T09:11:12.683Z,97351.00
2019-05-06T09:13:40.136Z,97339.33
2019-05-06T09:16:07.593Z,97335.71
2019-05-06T09:18:35.039Z,97348.98
2019-05-06T09:21:03.053Z,97344.98
2019-05-06T09:23:30.240Z,97342.41
2019-05-06T09:25:57.756Z,97344.42
2019-05-06T09:28:26.230Z,97347.20
2019-05-06T09:30:53.718Z,97353.89
2019-05-06T09:33:22.519Z,97354.73
2019-05-06T09:35:48.668Z,97353.43
2019-05-06T09:38:16.225Z,97336.37
2019-05-06T09:40:43.671Z,97354.41
2019-05-06T09:43:13.022Z,97354.80
2019-05-06T09:45:38.665Z,97352.66
2019-05-06T09:48:07.789Z,97346.48
2019-05-06T09:50:36.045Z,97355.56
2019-05-06T09:53:03.546Z,97348.13
2019-05-06T09:55:32.542Z,97351.84
2019-05-06T09:57:58.279Z,97350.13
2019-05-06T10:00:25.989Z,97352.43
2019-05-06T10:02:53.036Z,97350.19
2019-05-06T10:05:20.061Z,97359.09
2019-05-06T10:07:47.097Z,97361.91
2019-05-06T10:10:14.171Z,97366.15
2019-05-06T10:12:42.030Z,97368.10
2019-05-06T10:15:08.388Z,97366.46
2019-05-06T10:17:35.519Z,97360.49
2019-05-06T10:20:03.083Z,97369.27
2019-05-06T10:22:29.701Z,97363.54
2019-05-06T10:24:56.743Z,97376.61
2019-05-06T10:27:23.772Z,97371.95
2019-05-06T10:29:52.246Z,97380.90
2019-05-06T10:32:18.351Z,97385.69
2019-05-06T10:34:45.563Z,97388.47
2019-05-06T10:37:22.575Z,97385.75
2019-05-06T10:39:52.514Z,97372.33
2019-05-06T10:42:19.593Z,97383.50
2019-05-06T10:44:46.582Z,97400.25
2019-05-06T10:47:13.597Z,97401.06
2019-05-06T10:49:42.086Z,97400.25
2019-05-06T10:52:12.741Z,97393.20
2019-05-06T10:54:39.238Z,97398.06
2019-05-06T10:57:06.331Z,97380.33
2019-05-06T10:59:33.413Z,97390.34
2019-05-06T11:02:17.228Z,97376.11
2019-05-06T11:04:44.304Z,97384.61
2019-05-06T11:07:12.441Z,97373.92
2019-05-06T11:09:38.978Z,97385.86
2019-05-06T11:12:06.021Z,97383.81
2019-05-06T11:14:33.539Z,97387.77
2019-05-06T11:17:04.848Z,97376.56
2019-05-06T11:19:28.212Z,97379.87
2019-05-06T11:21:55.219Z,97386.37
2019-05-06T11:24:23.165Z,97384.98
2019-05-06T11:26:49.285Z,97388.39
2019-05-06T11:29:33.960Z,97378.03
2019-05-06T11:31:59.679Z,97391.61
2019-05-06T11:34:29.369Z,97393.84
2019-05-06T11:37:01.939Z,97381.84
2019-05-06T11:39:29.129Z,97381.52
2019-05-06T11:42:15.293Z,97389.95
2019-05-06T11:44:23.876Z,97392.98
2019-05-06T11:46:52.201Z,97384.39
2019-05-06T11:49:17.431Z,97377.86
2019-05-06T11:51:44.430Z,97389.88
2019-05-06T11:54:17.474Z,97389.02
2019-05-06T11:56:48.754Z,97390.44
2019-05-06T11:59:05.710Z,97394.61
2019-05-06T12:01:35.300Z,97388.00
2019-05-06T12:04:02.902Z,97377.93
2019-05-06T12:06:29.613Z,97378.09
2019-05-06T12:08:57.653Z,97374.33
2019-05-06T12:11:24.701Z,97367.48
2019-05-06T12:13:53.265Z,97367.72
2019-05-06T12:16:18.894Z,97384.45
2019-05-06T12:18:45.948Z,97376.30
2019-05-06T12:21:18.848Z,97382.94
2019-05-06T12:23:44.325Z,97383.20
2019-05-06T12:26:07.152Z,97382.92
2019-05-06T12:28:34.640Z,97385.05
2019-05-06T12:31:02.135Z,97399.16
2019-05-06T12:33:32.888Z,97393.15
2019-05-06T12:35:59.834Z,97395.95
2019-05-06T12:38:31.205Z,97396.91
2019-05-06T12:40:59.893Z,97392.14
2019-05-06T12:43:42.835Z,97389.52
2019-05-06T12:46:13.276Z,97400.63
2019-05-06T12:48:39.179Z,97391.80
2019-05-06T12:51:06.626Z,97397.88
2019-05-06T12:53:34.068Z,97387.23
2019-05-06T12:56:03.150Z,97387.78
2019-05-06T12:58:28.989Z,97384.97
2019-05-06T13:00:56.562Z,97375.34
2019-05-06T13:03:24.033Z,97381.97
2019-05-06T13:05:52.090Z,97382.88
2019-05-06T13:08:20.549Z,97377.34
2019-05-06T13:10:45.217Z,97381.67
2019-05-06T13:13:12.732Z,97382.75
2019-05-06T13:15:39.724Z,97375.67
2019-05-06T13:18:07.646Z,97381.34
2019-05-06T13:20:34.817Z,97377.16
2019-05-06T13:23:08.699Z,97370.37
2019-05-06T13:25:29.368Z,97373.44
2019-05-06T13:27:56.461Z,97367.11
2019-05-06T13:30:23.460Z,97360.57
2019-05-06T13:32:52.390Z,97370.40
2019-05-06T13:35:17.915Z,97364.44
2019-05-06T13:37:44.923Z,97370.25
2019-05-06T13:40:12.155Z,97367.72
2019-05-06T13:42:39.024Z,97366.56
2019-05-06T13:45:06.276Z,97371.77
2019-05-06T13:47:48.809Z,97359.76
2019-05-06T13:50:25.777Z,97363.35
2019-05-06T13:53:07.664Z,97363.20
2019-05-06T13:55:22.094Z,97357.92
2019-05-06T13:57:47.428Z,97349.13
2019-05-06T14:00:14.418Z,97349.41
2019-05-06T14:02:43.813Z,97360.19
2019-05-06T14:05:12.107Z,97352.77
2019-05-06T14:07:37.347Z,97351.88
2019-05-06T14:10:04.351Z,97344.70
2019-05-06T14:12:33.152Z,97343.41
2019-05-06T14:14:58.404Z,97348.32
2019-05-06T14:17:25.600Z,97347.34
2019-05-06T14:19:53.640Z,97348.23
2019-05-06T14:22:23.051Z,97345.64
2019-05-06T14:24:48.264Z,97345.97
2019-05-06T14:27:15.304Z,97340.34
2019-05-06T14:29:42.344Z,97340.89
2019-05-06T14:32:09.373Z,97341.22
2019-05-06T14:34:36.519Z,97334.43
2019-05-06T14:37:03.594Z,97338.73
2019-05-06T14:39:48.510Z,97337.19
2019-05-06T14:41:58.919Z,97339.53
2019-05-06T14:44:26.050Z,97334.99
2019-05-06T14:47:03.932Z,97344.11
2019-05-06T14:49:32.603Z,97332.38
2019-05-06T14:51:58.141Z,97342.34
2019-05-06T14:54:25.156Z,97336.25
2019-05-06T14:56:53.349Z,97339.85
2019-05-06T14:59:19.192Z,97345.86
2019-05-06T15:01:46.217Z,97343.98
2019-05-06T15:04:13.234Z,97344.17
2019-05-06T15:06:42.320Z,97341.27
2019-05-06T15:09:07.263Z,97341.53
2019-05-06T15:11:34.478Z,97330.58
2019-05-06T15:14:03.530Z,97337.36
2019-05-06T15:16:28.732Z,97336.59
2019-05-06T15:18:55.778Z,97346.70
2019-05-06T15:21:37.123Z,97335.52
2019-05-06T15:23:49.829Z,97335.45
2019-05-06T15:26:16.826Z,97344.52
2019-05-06T15:28:43.831Z,97340.91
2019-05-06T15:31:14.398Z,97334.09
2019-05-06T15:36:39.725Z,97335.05
2019-05-06T15:39:06.712Z,97346.12
2019-05-06T15:41:33.785Z,97343.75
2019-05-06T15:44:02.827Z,97333.10
2019-05-06T15:46:28.384Z,97346.86
2019-05-06T15:48:55.470Z,97342.20
2019-05-06T15:51:22.568Z,97344.19
2019-05-06T15:53:49.689Z,97343.45
2019-05-06T15:56:16.670Z,97350.56
2019-05-06T15:58:43.649Z,97343.69
2019-05-06T16:01:10.646Z,97349.24
2019-05-06T16:03:37.666Z,97348.77
2019-05-06T16:06:04.657Z,97344.59
2019-05-06T16:08:32.142Z,97340.92
2019-05-06T16:10:59.161Z,97336.19
2019-05-06T16:13:25.899Z,97340.50
2019-05-06T16:15:53.241Z,97341.77
2019-05-06T16:18:19.933Z,97343.27
2019-05-06T16:20:46.931Z,97341.56
2019-05-06T16:23:16.465Z,97341.41
2019-05-06T16:25:44.818Z,97338.55
2019-05-06T16:28:12.806Z,97340.64
2019-05-06T16:30:37.511Z,97336.68
2019-05-06T16:33:04.542Z,97341.55
2019-05-06T16:35:32.272Z,97331.64
2019-05-06T16:37:58.785Z,97342.77
2019-05-06T16:40:25.788Z,97337.48
2019-05-06T16:42:54.133Z,97336.58
2019-05-06T16:45:19.859Z,97339.22
2019-05-06T16:47:46.953Z,97343.36
2019-05-06T16:50:13.955Z,97339.95
2019-05-06T16:52:44.806Z,97338.47
2019-05-06T16:55:08.252Z,97341.48
2019-05-06T16:57:35.382Z,97338.22
2019-05-06T17:00:02.964Z,97339.25
2019-05-06T17:02:32.399Z,97344.91
2019-05-06T17:05:09.934Z,97346.92
2019-05-06T17:07:37.115Z,97347.20
2019-05-06T17:10:04.188Z,97350.55
2019-05-06T17:12:32.258Z,97345.95
2019-05-06T17:14:58.442Z,97350.02
2019-05-06T17:17:38.890Z,97349.14
2019-05-06T17:19:52.944Z,97345.88
2019-05-06T17:22:19.521Z,97346.31
2019-05-06T17:24:48.519Z,97353.19
2019-05-06T17:27:13.570Z,97355.25
2019-05-06T17:29:45.136Z,97352.52
2019-05-06T17:32:12.139Z,97352.97
2019-05-06T17:34:39.174Z,97344.78
2019-05-06T17:37:07.887Z,97350.57
2019-05-06T17:39:34.874Z,97349.32
2019-05-06T17:42:01.879Z,97360.15
2019-05-06T17:44:28.899Z,97355.34
2019-05-06T17:47:12.123Z,97358.11
2019-05-06T17:49:37.894Z,97357.80
2019-05-06T17:52:05.381Z,97361.51
2019-05-06T17:54:32.616Z,97361.45
2019-05-06T17:57:02.256Z,97361.31
2019-05-06T17:59:26.616Z,97358.21
2019-05-06T18:01:53.763Z,97361.66
2019-05-06T18:04:22.741Z,97365.50
2019-05-06T18:06:47.843Z,97366.34
2019-05-06T18:09:14.940Z,97365.29
2019-05-06T18:11:43.790Z,97368.03
2019-05-06T18:14:09.449Z,97364.50
2019-05-06T18:16:36.956Z,97367.03
2019-05-06T18:19:04.444Z,97361.31
2019-05-06T18:21:31.913Z,97375.33
2019-05-06T18:23:59.414Z,97377.27
2019-05-06T18:26:26.874Z,97369.05
2019-05-06T18:28:54.333Z,97374.78
2019-05-06T18:31:22.195Z,97365.33
2019-05-06T18:33:49.323Z,97361.44
2019-05-06T18:36:16.775Z,97365.79
2019-05-06T18:38:44.239Z,97367.53
2019-05-06T18:41:12.047Z,97374.73
2019-05-06T18:43:42.062Z,97371.66
2019-05-06T18:46:07.552Z,97375.12
2019-05-06T18:48:35.204Z,97377.98
2019-05-06T18:51:03.021Z,97378.21
2019-05-06T18:53:28.587Z,97379.13
2019-05-06T18:55:55.660Z,97383.69
2019-05-06T18:58:22.702Z,97389.50
2019-05-06T19:00:50.154Z,97383.10
2019-05-06T19:03:17.714Z,97389.56
2019-05-06T19:05:45.182Z,97392.75
2019-05-06T19:08:29.287Z,97390.72
2019-05-06T19:10:56.753Z,97389.10
2019-05-06T19:13:24.206Z,97391.59
2019-05-06T19:15:52.623Z,97395.03
2019-05-06T19:18:19.201Z,97408.50
2019-05-06T19:20:46.661Z,97411.42
2019-05-06T19:23:14.116Z,97405.67
2019-05-06T19:25:42.858Z,97405.54
2019-05-06T19:28:09.095Z,97400.36
2019-05-06T19:30:36.647Z,97408.59
2019-05-06T19:33:06.891Z,97407.05
2019-05-06T19:35:33.123Z,97411.41
2019-05-06T19:37:58.228Z,97409.05
2019-05-06T19:40:25.682Z,97407.13
2019-05-06T19:42:53.443Z,97408.06
2019-05-06T19:45:22.441Z,97410.77
2019-05-06T19:47:48.123Z,97409.16
2019-05-06T19:50:15.595Z,97408.13
2019-05-06T19:52:43.046Z,97409.36
2019-05-06T19:55:12.340Z,97408.80
2019-05-06T19:57:38.155Z,97421.67
2019-05-06T20:00:05.607Z,97427.73
2019-05-06T20:02:33.062Z,97429.09
2019-05-06T20:05:03.221Z,97426.50
2019-05-06T20:07:30.351Z,97424.56
2019-05-06T20:10:08.577Z,97421.71
2019-05-06T20:12:38.772Z,97415.42
2019-05-06T20:15:13.336Z,97419.06
2019-05-06T20:17:39.158Z,97419.76
2019-05-06T20:20:06.667Z,97415.67
2019-05-06T20:22:34.114Z,97413.20
2019-05-06T20:25:03.024Z,97423.33
2019-05-06T20:27:29.144Z,97420.51
2019-05-06T20:29:56.598Z,97416.56
2019-05-06T20:32:24.138Z,97419.05
2019-05-06T20:34:51.619Z,97417.43
2019-05-06T20:37:19.062Z,97419.98
2019-05-06T20:39:46.598Z,97424.03
2019-05-06T20:42:14.043Z,97417.58
2019-05-06T20:44:43.309Z,97417.13
2019-05-06T20:47:09.191Z,97416.08
2019-05-06T20:49:36.644Z,97427.11
2019-05-06T20:52:04.129Z,97422.67
2019-05-06T20:58:02.755Z,97414.91
2019-05-06T21:00:29.238Z,97423.19
2019-05-06T21:02:56.730Z,97419.70
2019-05-06T21:05:24.184Z,97421.53
2019-05-06T21:07:52.601Z,97426.16
2019-05-06T21:10:19.287Z,97428.88
2019-05-06T21:12:46.764Z,97428.64
2019-05-06T21:15:14.227Z,97426.53
2019-05-06T21:17:42.054Z,97423.16
2019-05-06T21:20:09.333Z,97427.98
2019-05-06T21:22:36.803Z,97423.28
2019-05-06T21:25:04.251Z,97412.70
2019-05-06T21:27:31.790Z,97412.99
2019-05-06T21:29:59.265Z,97413.64
2019-05-06T21:32:26.737Z,97414.67
2019-05-06T21:34:54.185Z,97410.82
2019-05-06T21:37:22.975Z,97409.02
2019-05-06T21:39:49.102Z,97403.84
2019-05-06T21:42:16.556Z,97410.75
2019-05-06T21:44:44.036Z,97411.57
2019-05-06T21:47:11.487Z,97410.44
2019-05-06T21:49:38.935Z,97420.59
2019-05-06T21:52:06.396Z,97420.59
2019-05-06T21:54:33.843Z,97422.63
2019-05-06T21:57:02.979Z,97419.05
2019-05-06T21:59:28.871Z,97413.34
2019-05-06T22:01:56.520Z,97420.72
2019-05-06T22:04:24.007Z,97418.16
2019-05-06T22:06:52.452Z,97413.09
2019-05-06T22:09:18.929Z,97410.37
2019-05-06T22:11:46.387Z,97412.98
2019-05-06T22:14:13.862Z,97414.63
2019-05-06T22:16:43.686Z,97409.77
2019-05-06T22:19:11.920Z,97411.66
2019-05-06T22:21:37.110Z,97413.66
2019-05-06T22:24:04.881Z,97411.42
2019-05-06T22:26:32.602Z,97414.77
2019-05-06T22:29:01.871Z,97416.96
2019-05-06T22:31:27.462Z,97419.11
2019-05-06T22:33:55.481Z,97417.98
2019-05-06T22:36:24.213Z,97414.66
2019-05-06T22:38:52.971Z,97416.84
2019-05-06T22:41:19.211Z,97415.41
2019-05-06T22:43:46.637Z,97415.66
2019-05-06T22:46:14.095Z,97417.13
2019-05-06T22:48:43.309Z,97422.71
2019-05-06T22:51:09.166Z,97417.20
2019-05-06T22:53:36.843Z,97420.82
2019-05-06T22:56:05.386Z,97422.88
2019-05-06T22:58:34.545Z,97419.73
2019-05-06T23:01:00.443Z,97413.43
2019-05-06T23:03:31.694Z,97412.77
2019-05-06T23:05:58.099Z,97411.44
2019-05-06T23:08:26.858Z,97406.58
2019-05-06T23:10:53.143Z,97411.78
2019-05-06T23:13:22.608Z,97408.44
2019-05-06T23:15:48.111Z,97409.42
2019-05-06T23:18:15.588Z,97410.06
2019-05-06T23:20:43.823Z,97412.15
2019-05-06T23:23:12.841Z,97410.47
2019-05-06T23:25:38.787Z,97406.09
2019-05-06T23:28:06.983Z,97412.23
2019-05-06T23:30:34.463Z,97395.67
2019-05-06T23:33:03.613Z,97396.16
2019-05-06T23:35:31.182Z,97398.34
2019-05-06T23:38:12.084Z,97400.64
2019-05-06T23:40:52.069Z,97406.66
2019-05-06T23:43:29.079Z,97406.56
2019-05-06T23:46:08.378Z,97405.52
2019-05-06T23:48:47.655Z,97407.91
2019-05-06T23:51:26.722Z,97405.14
2019-05-06T23:54:05.942Z,97398.62
2019-05-06T23:56:38.746Z,97396.84
2019-05-06T23:59:06.212Z,97395.85
